sensor_id;sensor_type;location;lat;lon;timestamp;P1;durP1;ratioP1;P2;durP2;ratioP2
13435;SDS011;6790;49.520;8.504;2023-05-14T00:01:35;6.80;;;5.50;;
13435;SDS011;6790;49.520;8.504;2023-05-14T00:04:01;5.67;;;5.07;;
13435;SDS011;6790;49.520;8.504;2023-05-14T00:06:28;6.23;;;5.10;;
13435;SDS011;6790;49.520;8.504;2023-05-14T00:08:53;7.10;;;5.27;;
13435;SDS011;6790;49.520;8.504;2023-05-14T00:11:19;5.60;;;4.90;;
13435;SDS011;6790;49.520;8.504;2023-05-14T00:13:45;5.30;;;4.80;;
13435;SDS011;6790;49.520;8.504;2023-05-14T00:16:11;5.73;;;4.50;;
13435;SDS011;6790;49.520;8.504;2023-05-14T00:18:36;5.00;;;4.50;;
13435;SDS011;6790;49.520;8.504;2023-05-14T00:21:02;6.63;;;4.17;;
13435;SDS011;6790;49.520;8.504;2023-05-14T00:23:28;4.30;;;3.73;;
13435;SDS011;6790;49.520;8.504;2023-05-14T00:25:54;5.73;;;3.77;;
13435;SDS011;6790;49.520;8.504;2023-05-14T00:28:20;4.33;;;3.93;;
13435;SDS011;6790;49.520;8.504;2023-05-14T00:30:45;5.10;;;3.70;;
13435;SDS011;6790;49.520;8.504;2023-05-14T00:33:11;4.50;;;4.10;;
13435;SDS011;6790;49.520;8.504;2023-05-14T00:35:37;6.77;;;4.00;;
13435;SDS011;6790;49.520;8.504;2023-05-14T00:38:02;8.50;;;4.10;;
13435;SDS011;6790;49.520;8.504;2023-05-14T00:40:28;4.90;;;4.03;;
13435;SDS011;6790;49.520;8.504;2023-05-14T00:42:54;5.13;;;4.33;;
13435;SDS011;6790;49.520;8.504;2023-05-14T00:45:20;4.03;;;3.63;;
13435;SDS011;6790;49.520;8.504;2023-05-14T00:47:47;4.33;;;3.93;;
13435;SDS011;6790;49.520;8.504;2023-05-14T00:50:13;6.07;;;4.10;;
13435;SDS011;6790;49.520;8.504;2023-05-14T00:52:41;4.63;;;3.93;;
13435;SDS011;6790;49.520;8.504;2023-05-14T00:55:07;5.07;;;4.17;;
13435;SDS011;6790;49.520;8.504;2023-05-14T00:57:36;4.70;;;4.23;;
13435;SDS011;6790;49.520;8.504;2023-05-14T01:00:03;4.67;;;4.20;;
13435;SDS011;6790;49.520;8.504;2023-05-14T01:02:29;6.00;;;4.97;;
13435;SDS011;6790;49.520;8.504;2023-05-14T01:04:55;5.53;;;4.30;;
13435;SDS011;6790;49.520;8.504;2023-05-14T01:07:25;6.67;;;4.40;;
13435;SDS011;6790;49.520;8.504;2023-05-14T01:15:38;4.63;;;4.20;;
13435;SDS011;6790;49.520;8.504;2023-05-14T01:18:09;5.47;;;4.40;;
13435;SDS011;6790;49.520;8.504;2023-05-14T01:20:38;4.87;;;4.30;;
13435;SDS011;6790;49.520;8.504;2023-05-14T01:23:04;8.17;;;4.77;;
13435;SDS011;6790;49.520;8.504;2023-05-14T01:25:29;5.10;;;4.53;;
13435;SDS011;6790;49.520;8.504;2023-05-14T01:28:08;5.07;;;4.53;;
13435;SDS011;6790;49.520;8.504;2023-05-14T01:33:24;7.43;;;5.07;;
13435;SDS011;6790;49.520;8.504;2023-05-14T01:35:51;5.27;;;4.77;;
13435;SDS011;6790;49.520;8.504;2023-05-14T01:38:18;5.00;;;4.50;;
13435;SDS011;6790;49.520;8.504;2023-05-14T01:40:45;7.33;;;5.30;;
13435;SDS011;6790;49.520;8.504;2023-05-14T01:43:13;7.13;;;5.70;;
13435;SDS011;6790;49.520;8.504;2023-05-14T01:45:40;6.80;;;5.03;;
13435;SDS011;6790;49.520;8.504;2023-05-14T01:48:06;7.00;;;5.93;;
13435;SDS011;6790;49.520;8.504;2023-05-14T01:50:32;6.83;;;5.70;;
13435;SDS011;6790;49.520;8.504;2023-05-14T01:52:57;8.87;;;5.83;;
13435;SDS011;6790;49.520;8.504;2023-05-14T01:55:23;5.80;;;5.20;;
13435;SDS011;6790;49.520;8.504;2023-05-14T01:57:50;10.13;;;5.23;;
13435;SDS011;6790;49.520;8.504;2023-05-14T02:00:16;6.70;;;5.23;;
13435;SDS011;6790;49.520;8.504;2023-05-14T02:02:42;8.23;;;5.33;;
13435;SDS011;6790;49.520;8.504;2023-05-14T02:05:09;6.10;;;5.50;;
13435;SDS011;6790;49.520;8.504;2023-05-14T02:07:35;6.10;;;5.47;;
13435;SDS011;6790;49.520;8.504;2023-05-14T02:10:01;5.93;;;5.17;;
13435;SDS011;6790;49.520;8.504;2023-05-14T02:12:26;5.73;;;5.13;;
13435;SDS011;6790;49.520;8.504;2023-05-14T02:14:52;6.53;;;5.30;;
13435;SDS011;6790;49.520;8.504;2023-05-14T02:17:18;7.50;;;5.57;;
13435;SDS011;6790;49.520;8.504;2023-05-14T02:19:44;6.70;;;6.07;;
13435;SDS011;6790;49.520;8.504;2023-05-14T02:22:10;9.37;;;5.53;;
13435;SDS011;6790;49.520;8.504;2023-05-14T02:24:36;6.03;;;5.20;;
13435;SDS011;6790;49.520;8.504;2023-05-14T02:27:02;7.00;;;6.10;;
13435;SDS011;6790;49.520;8.504;2023-05-14T02:29:28;6.90;;;6.20;;
13435;SDS011;6790;49.520;8.504;2023-05-14T02:31:54;8.07;;;6.60;;
13435;SDS011;6790;49.520;8.504;2023-05-14T02:34:20;6.67;;;5.97;;
13435;SDS011;6790;49.520;8.504;2023-05-14T02:36:46;7.30;;;6.00;;
13435;SDS011;6790;49.520;8.504;2023-05-14T02:39:11;8.10;;;7.20;;
13435;SDS011;6790;49.520;8.504;2023-05-14T02:41:37;8.53;;;6.73;;
13435;SDS011;6790;49.520;8.504;2023-05-14T02:44:03;8.63;;;6.83;;
13435;SDS011;6790;49.520;8.504;2023-05-14T02:46:29;7.60;;;6.53;;
13435;SDS011;6790;49.520;8.504;2023-05-14T02:48:56;8.80;;;7.57;;
13435;SDS011;6790;49.520;8.504;2023-05-14T02:51:22;10.37;;;8.17;;
13435;SDS011;6790;49.520;8.504;2023-05-14T02:53:48;9.53;;;6.73;;
13435;SDS011;6790;49.520;8.504;2023-05-14T02:56:13;8.03;;;7.07;;
13435;SDS011;6790;49.520;8.504;2023-05-14T02:58:39;9.60;;;7.73;;
13435;SDS011;6790;49.520;8.504;2023-05-14T03:01:05;11.30;;;7.63;;
13435;SDS011;6790;49.520;8.504;2023-05-14T03:03:31;9.47;;;7.97;;
13435;SDS011;6790;49.520;8.504;2023-05-14T03:05:56;9.97;;;8.20;;
13435;SDS011;6790;49.520;8.504;2023-05-14T03:08:22;10.97;;;7.90;;
13435;SDS011;6790;49.520;8.504;2023-05-14T03:10:48;8.77;;;7.27;;
13435;SDS011;6790;49.520;8.504;2023-05-14T03:13:13;10.67;;;7.80;;
13435;SDS011;6790;49.520;8.504;2023-05-14T03:15:44;9.40;;;8.40;;
13435;SDS011;6790;49.520;8.504;2023-05-14T03:18:11;11.63;;;7.90;;
13435;SDS011;6790;49.520;8.504;2023-05-14T03:20:37;10.60;;;8.10;;
13435;SDS011;6790;49.520;8.504;2023-05-14T03:23:03;11.27;;;8.90;;
13435;SDS011;6790;49.520;8.504;2023-05-14T03:25:29;11.77;;;8.30;;
13435;SDS011;6790;49.520;8.504;2023-05-14T03:27:55;10.80;;;8.43;;
13435;SDS011;6790;49.520;8.504;2023-05-14T03:30:20;10.37;;;8.10;;
13435;SDS011;6790;49.520;8.504;2023-05-14T03:32:46;10.97;;;8.50;;
13435;SDS011;6790;49.520;8.504;2023-05-14T03:35:12;11.43;;;8.20;;
13435;SDS011;6790;49.520;8.504;2023-05-14T03:37:37;10.00;;;7.97;;
13435;SDS011;6790;49.520;8.504;2023-05-14T03:40:03;9.73;;;8.20;;
13435;SDS011;6790;49.520;8.504;2023-05-14T03:42:30;9.97;;;8.23;;
13435;SDS011;6790;49.520;8.504;2023-05-14T03:44:56;11.57;;;9.03;;
13435;SDS011;6790;49.520;8.504;2023-05-14T03:47:21;12.60;;;9.50;;
13435;SDS011;6790;49.520;8.504;2023-05-14T03:49:47;13.60;;;8.80;;
13435;SDS011;6790;49.520;8.504;2023-05-14T03:52:12;12.47;;;8.23;;
13435;SDS011;6790;49.520;8.504;2023-05-14T03:54:38;12.57;;;8.37;;
13435;SDS011;6790;49.520;8.504;2023-05-14T03:57:05;11.40;;;9.00;;
13435;SDS011;6790;49.520;8.504;2023-05-14T03:59:31;11.00;;;9.47;;
13435;SDS011;6790;49.520;8.504;2023-05-14T04:01:56;13.70;;;9.43;;
13435;SDS011;6790;49.520;8.504;2023-05-14T04:04:22;10.33;;;8.30;;
13435;SDS011;6790;49.520;8.504;2023-05-14T04:06:48;10.90;;;8.63;;
13435;SDS011;6790;49.520;8.504;2023-05-14T04:09:13;9.67;;;8.37;;
13435;SDS011;6790;49.520;8.504;2023-05-14T04:11:39;13.70;;;9.37;;
13435;SDS011;6790;49.520;8.504;2023-05-14T04:14:05;16.57;;;10.10;;
13435;SDS011;6790;49.520;8.504;2023-05-14T04:16:30;12.53;;;9.77;;
13435;SDS011;6790;49.520;8.504;2023-05-14T04:18:56;11.77;;;8.50;;
13435;SDS011;6790;49.520;8.504;2023-05-14T04:21:22;15.63;;;9.10;;
13435;SDS011;6790;49.520;8.504;2023-05-14T04:23:48;11.07;;;9.20;;
13435;SDS011;6790;49.520;8.504;2023-05-14T04:26:14;12.10;;;9.63;;
13435;SDS011;6790;49.520;8.504;2023-05-14T04:28:40;13.07;;;9.07;;
13435;SDS011;6790;49.520;8.504;2023-05-14T04:31:06;12.43;;;10.30;;
13435;SDS011;6790;49.520;8.504;2023-05-14T04:33:31;14.60;;;9.70;;
13435;SDS011;6790;49.520;8.504;2023-05-14T04:35:57;11.73;;;9.47;;
13435;SDS011;6790;49.520;8.504;2023-05-14T04:38:23;13.17;;;10.30;;
13435;SDS011;6790;49.520;8.504;2023-05-14T04:40:48;14.40;;;10.17;;
13435;SDS011;6790;49.520;8.504;2023-05-14T04:43:14;13.97;;;10.83;;
13435;SDS011;6790;49.520;8.504;2023-05-14T04:45:41;13.17;;;10.03;;
13435;SDS011;6790;49.520;8.504;2023-05-14T04:48:07;13.00;;;10.03;;
13435;SDS011;6790;49.520;8.504;2023-05-14T04:50:33;11.60;;;9.20;;
13435;SDS011;6790;49.520;8.504;2023-05-14T04:52:59;14.83;;;9.57;;
13435;SDS011;6790;49.520;8.504;2023-05-14T04:55:25;16.00;;;9.13;;
13435;SDS011;6790;49.520;8.504;2023-05-14T04:57:50;12.97;;;9.20;;
13435;SDS011;6790;49.520;8.504;2023-05-14T05:00:16;10.67;;;9.20;;
13435;SDS011;6790;49.520;8.504;2023-05-14T05:02:43;11.07;;;9.03;;
13435;SDS011;6790;49.520;8.504;2023-05-14T05:05:08;10.57;;;9.33;;
13435;SDS011;6790;49.520;8.504;2023-05-14T05:07:34;10.40;;;8.83;;
13435;SDS011;6790;49.520;8.504;2023-05-14T05:10:00;11.67;;;9.13;;
13435;SDS011;6790;49.520;8.504;2023-05-14T05:12:26;9.43;;;8.50;;
13435;SDS011;6790;49.520;8.504;2023-05-14T05:14:54;9.83;;;8.33;;
13435;SDS011;6790;49.520;8.504;2023-05-14T05:17:21;11.50;;;9.20;;
13435;SDS011;6790;49.520;8.504;2023-05-14T05:19:47;11.90;;;8.60;;
13435;SDS011;6790;49.520;8.504;2023-05-14T05:22:13;11.87;;;8.77;;
13435;SDS011;6790;49.520;8.504;2023-05-14T05:24:39;12.47;;;9.07;;
13435;SDS011;6790;49.520;8.504;2023-05-14T05:27:05;10.57;;;8.60;;
13435;SDS011;6790;49.520;8.504;2023-05-14T05:29:31;11.57;;;8.87;;
13435;SDS011;6790;49.520;8.504;2023-05-14T05:31:56;11.57;;;8.00;;
13435;SDS011;6790;49.520;8.504;2023-05-14T05:34:22;10.33;;;8.27;;
13435;SDS011;6790;49.520;8.504;2023-05-14T05:36:48;13.33;;;8.57;;
13435;SDS011;6790;49.520;8.504;2023-05-14T05:39:13;10.27;;;8.47;;
13435;SDS011;6790;49.520;8.504;2023-05-14T05:41:39;9.80;;;8.37;;
13435;SDS011;6790;49.520;8.504;2023-05-14T05:44:05;9.27;;;8.07;;
13435;SDS011;6790;49.520;8.504;2023-05-14T05:46:30;8.90;;;7.77;;
13435;SDS011;6790;49.520;8.504;2023-05-14T05:48:59;9.83;;;8.33;;
13435;SDS011;6790;49.520;8.504;2023-05-14T05:51:27;10.70;;;8.63;;
13435;SDS011;6790;49.520;8.504;2023-05-14T05:53:54;11.03;;;8.00;;
13435;SDS011;6790;49.520;8.504;2023-05-14T05:56:20;10.30;;;8.10;;
13435;SDS011;6790;49.520;8.504;2023-05-14T05:58:46;9.97;;;7.77;;
13435;SDS011;6790;49.520;8.504;2023-05-14T06:01:11;10.97;;;8.30;;
13435;SDS011;6790;49.520;8.504;2023-05-14T06:03:37;9.27;;;8.23;;
13435;SDS011;6790;49.520;8.504;2023-05-14T06:06:03;12.37;;;8.33;;
13435;SDS011;6790;49.520;8.504;2023-05-14T06:08:29;14.57;;;7.67;;
13435;SDS011;6790;49.520;8.504;2023-05-14T06:10:55;10.60;;;7.50;;
13435;SDS011;6790;49.520;8.504;2023-05-14T06:13:21;9.47;;;7.43;;
13435;SDS011;6790;49.520;8.504;2023-05-14T06:15:46;9.37;;;8.17;;
13435;SDS011;6790;49.520;8.504;2023-05-14T06:18:12;8.87;;;7.53;;
13435;SDS011;6790;49.520;8.504;2023-05-14T06:20:38;8.13;;;6.80;;
13435;SDS011;6790;49.520;8.504;2023-05-14T06:23:05;9.70;;;7.20;;
13435;SDS011;6790;49.520;8.504;2023-05-14T06:25:31;9.77;;;7.60;;
13435;SDS011;6790;49.520;8.504;2023-05-14T06:27:57;10.50;;;7.97;;
13435;SDS011;6790;49.520;8.504;2023-05-14T06:30:23;10.87;;;8.20;;
13435;SDS011;6790;49.520;8.504;2023-05-14T06:32:49;8.13;;;7.30;;
13435;SDS011;6790;49.520;8.504;2023-05-14T06:35:15;8.67;;;7.13;;
13435;SDS011;6790;49.520;8.504;2023-05-14T06:37:43;8.93;;;6.90;;
13435;SDS011;6790;49.520;8.504;2023-05-14T06:40:09;8.50;;;7.60;;
13435;SDS011;6790;49.520;8.504;2023-05-14T06:42:36;9.83;;;6.77;;
13435;SDS011;6790;49.520;8.504;2023-05-14T06:45:02;7.10;;;6.40;;
13435;SDS011;6790;49.520;8.504;2023-05-14T06:47:29;7.07;;;6.37;;
13435;SDS011;6790;49.520;8.504;2023-05-14T06:49:55;6.57;;;5.90;;
13435;SDS011;6790;49.520;8.504;2023-05-14T06:52:22;8.30;;;6.60;;
13435;SDS011;6790;49.520;8.504;2023-05-14T06:54:48;6.87;;;5.83;;
13435;SDS011;6790;49.520;8.504;2023-05-14T06:57:14;7.70;;;6.30;;
13435;SDS011;6790;49.520;8.504;2023-05-14T06:59:40;7.70;;;5.70;;
13435;SDS011;6790;49.520;8.504;2023-05-14T07:02:05;6.97;;;5.90;;
13435;SDS011;6790;49.520;8.504;2023-05-14T07:04:31;6.77;;;6.07;;
13435;SDS011;6790;49.520;8.504;2023-05-14T07:06:57;7.30;;;5.20;;
13435;SDS011;6790;49.520;8.504;2023-05-14T07:09:22;6.27;;;5.60;;
13435;SDS011;6790;49.520;8.504;2023-05-14T07:11:48;6.03;;;5.43;;
13435;SDS011;6790;49.520;8.504;2023-05-14T07:14:14;6.60;;;5.50;;
13435;SDS011;6790;49.520;8.504;2023-05-14T07:16:39;6.73;;;5.43;;
13435;SDS011;6790;49.520;8.504;2023-05-14T07:19:06;5.83;;;4.67;;
13435;SDS011;6790;49.520;8.504;2023-05-14T07:21:32;5.47;;;4.80;;
13435;SDS011;6790;49.520;8.504;2023-05-14T07:23:59;5.53;;;4.90;;
13435;SDS011;6790;49.520;8.504;2023-05-14T07:26:24;5.17;;;4.63;;
13435;SDS011;6790;49.520;8.504;2023-05-14T07:28:50;6.53;;;4.80;;
13435;SDS011;6790;49.520;8.504;2023-05-14T07:31:16;5.67;;;4.77;;
13435;SDS011;6790;49.520;8.504;2023-05-14T07:33:41;5.17;;;4.67;;
13435;SDS011;6790;49.520;8.504;2023-05-14T07:36:07;5.37;;;4.80;;
13435;SDS011;6790;49.520;8.504;2023-05-14T07:38:33;5.73;;;5.10;;
13435;SDS011;6790;49.520;8.504;2023-05-14T07:40:59;6.47;;;4.87;;
13435;SDS011;6790;49.520;8.504;2023-05-14T07:43:25;5.70;;;5.10;;
13435;SDS011;6790;49.520;8.504;2023-05-14T07:45:51;6.77;;;5.17;;
13435;SDS011;6790;49.520;8.504;2023-05-14T07:48:16;6.47;;;5.30;;
13435;SDS011;6790;49.520;8.504;2023-05-14T07:50:42;5.70;;;5.17;;
13435;SDS011;6790;49.520;8.504;2023-05-14T07:53:08;7.93;;;7.10;;
13435;SDS011;6790;49.520;8.504;2023-05-14T07:55:34;7.73;;;6.30;;
13435;SDS011;6790;49.520;8.504;2023-05-14T07:58:00;12.93;;;10.10;;
13435;SDS011;6790;49.520;8.504;2023-05-14T08:00:25;13.77;;;10.70;;
13435;SDS011;6790;49.520;8.504;2023-05-14T08:02:51;9.67;;;5.00;;
13435;SDS011;6790;49.520;8.504;2023-05-14T08:05:17;6.00;;;4.70;;
13435;SDS011;6790;49.520;8.504;2023-05-14T08:07:43;9.77;;;4.57;;
13435;SDS011;6790;49.520;8.504;2023-05-14T08:10:08;5.37;;;4.80;;
13435;SDS011;6790;49.520;8.504;2023-05-14T08:12:35;5.03;;;4.63;;
13435;SDS011;6790;49.520;8.504;2023-05-14T08:15:00;4.43;;;4.03;;
13435;SDS011;6790;49.520;8.504;2023-05-14T08:17:26;4.40;;;4.00;;
13435;SDS011;6790;49.520;8.504;2023-05-14T08:19:52;4.27;;;3.87;;
13435;SDS011;6790;49.520;8.504;2023-05-14T08:22:18;4.33;;;3.77;;
13435;SDS011;6790;49.520;8.504;2023-05-14T08:24:44;4.03;;;3.60;;
13435;SDS011;6790;49.520;8.504;2023-05-14T08:27:09;7.88;;;6.72;;
13435;SDS011;6790;49.520;8.504;2023-05-14T08:29:35;4.77;;;4.10;;
13435;SDS011;6790;49.520;8.504;2023-05-14T08:32:01;5.83;;;4.60;;
13435;SDS011;6790;49.520;8.504;2023-05-14T08:34:26;4.63;;;4.13;;
13435;SDS011;6790;49.520;8.504;2023-05-14T08:36:52;7.20;;;4.00;;
13435;SDS011;6790;49.520;8.504;2023-05-14T08:39:18;6.28;;;3.97;;
13435;SDS011;6790;49.520;8.504;2023-05-14T08:41:44;3.90;;;3.60;;
13435;SDS011;6790;49.520;8.504;2023-05-14T08:46:42;5.28;;;4.78;;
13435;SDS011;6790;49.520;8.504;2023-05-14T08:49:12;4.70;;;4.20;;
13435;SDS011;6790;49.520;8.504;2023-05-14T08:52:01;4.70;;;4.20;;
13435;SDS011;6790;49.520;8.504;2023-05-14T08:54:28;3.90;;;3.60;;
13435;SDS011;6790;49.520;8.504;2023-05-14T08:56:56;5.43;;;4.60;;
13435;SDS011;6790;49.520;8.504;2023-05-14T08:59:23;32.03;;;24.48;;
13435;SDS011;6790;49.520;8.504;2023-05-14T09:01:50;5.93;;;5.40;;
13435;SDS011;6790;49.520;8.504;2023-05-14T09:04:19;5.35;;;4.72;;
13435;SDS011;6790;49.520;8.504;2023-05-14T09:06:50;5.25;;;4.57;;
13435;SDS011;6790;49.520;8.504;2023-05-14T09:09:18;5.05;;;4.55;;
13435;SDS011;6790;49.520;8.504;2023-05-14T09:11:48;6.10;;;4.30;;
13435;SDS011;6790;49.520;8.504;2023-05-14T09:14:15;4.70;;;4.20;;
13435;SDS011;6790;49.520;8.504;2023-05-14T09:16:45;4.97;;;4.18;;
13435;SDS011;6790;49.520;8.504;2023-05-14T09:19:13;4.30;;;3.90;;
13435;SDS011;6790;49.520;8.504;2023-05-14T09:21:39;5.25;;;4.32;;
13435;SDS011;6790;49.520;8.504;2023-05-14T09:24:06;4.90;;;4.32;;
13435;SDS011;6790;49.520;8.504;2023-05-14T09:26:32;6.55;;;5.85;;
13435;SDS011;6790;49.520;8.504;2023-05-14T09:28:59;6.40;;;5.72;;
13435;SDS011;6790;49.520;8.504;2023-05-14T09:31:29;4.90;;;4.35;;
13435;SDS011;6790;49.520;8.504;2023-05-14T09:33:57;4.68;;;3.90;;
13435;SDS011;6790;49.520;8.504;2023-05-14T09:36:24;4.40;;;4.00;;
13435;SDS011;6790;49.520;8.504;2023-05-14T09:38:51;4.60;;;3.60;;
13435;SDS011;6790;49.520;8.504;2023-05-14T09:41:25;4.20;;;3.80;;
13435;SDS011;6790;49.520;8.504;2023-05-14T09:43:51;4.20;;;3.75;;
13435;SDS011;6790;49.520;8.504;2023-05-14T09:46:17;4.63;;;3.80;;
13435;SDS011;6790;49.520;8.504;2023-05-14T09:48:44;4.20;;;3.80;;
13435;SDS011;6790;49.520;8.504;2023-05-14T09:51:10;3.83;;;3.53;;
13435;SDS011;6790;49.520;8.504;2023-05-14T09:53:37;4.10;;;3.70;;
13435;SDS011;6790;49.520;8.504;2023-05-14T09:56:05;4.80;;;4.00;;
13435;SDS011;6790;49.520;8.504;2023-05-14T09:58:31;4.93;;;4.10;;
13435;SDS011;6790;49.520;8.504;2023-05-14T10:00:57;11.52;;;8.52;;
13435;SDS011;6790;49.520;8.504;2023-05-14T10:03:24;6.93;;;6.20;;
13435;SDS011;6790;49.520;8.504;2023-05-14T10:05:53;4.40;;;4.00;;
13435;SDS011;6790;49.520;8.504;2023-05-14T10:08:23;4.30;;;3.85;;
13435;SDS011;6790;49.520;8.504;2023-05-14T10:10:55;3.50;;;3.20;;
13435;SDS011;6790;49.520;8.504;2023-05-14T10:13:29;4.00;;;3.30;;
13435;SDS011;6790;49.520;8.504;2023-05-14T10:19:08;5.90;;;3.67;;
13435;SDS011;6790;49.520;8.504;2023-05-14T10:21:36;3.88;;;3.47;;
13435;SDS011;6790;49.520;8.504;2023-05-14T10:24:05;3.47;;;3.17;;
13435;SDS011;6790;49.520;8.504;2023-05-14T10:26:35;4.35;;;3.17;;
13435;SDS011;6790;49.520;8.504;2023-05-14T10:29:04;3.78;;;3.38;;
13435;SDS011;6790;49.520;8.504;2023-05-14T10:37:13;3.65;;;3.30;;
13435;SDS011;6790;49.520;8.504;2023-05-14T10:42:27;3.90;;;3.50;;
13435;SDS011;6790;49.520;8.504;2023-05-14T10:45:00;3.83;;;3.45;;
13435;SDS011;6790;49.520;8.504;2023-05-14T10:47:31;3.50;;;3.20;;
13435;SDS011;6790;49.520;8.504;2023-05-14T10:50:02;5.25;;;3.53;;
13435;SDS011;6790;49.520;8.504;2023-05-14T10:52:30;3.90;;;3.50;;
13435;SDS011;6790;49.520;8.504;2023-05-14T10:54:58;3.10;;;2.80;;
13435;SDS011;6790;49.520;8.504;2023-05-14T10:57:26;3.73;;;2.90;;
13435;SDS011;6790;49.520;8.504;2023-05-14T10:59:55;3.57;;;3.27;;
13435;SDS011;6790;49.520;8.504;2023-05-14T11:02:28;3.67;;;3.30;;
13435;SDS011;6790;49.520;8.504;2023-05-14T11:05:04;3.93;;;3.40;;
13435;SDS011;6790;49.520;8.504;2023-05-14T11:07:48;5.13;;;3.80;;
13435;SDS011;6790;49.520;8.504;2023-05-14T11:10:18;3.77;;;3.40;;
13435;SDS011;6790;49.520;8.504;2023-05-14T11:12:46;4.00;;;3.60;;
13435;SDS011;6790;49.520;8.504;2023-05-14T11:15:19;3.90;;;3.30;;
13435;SDS011;6790;49.520;8.504;2023-05-14T11:17:47;3.75;;;3.45;;
13435;SDS011;6790;49.520;8.504;2023-05-14T11:20:15;3.72;;;3.38;;
13435;SDS011;6790;49.520;8.504;2023-05-14T11:22:41;3.38;;;3.08;;
13435;SDS011;6790;49.520;8.504;2023-05-14T11:25:09;5.40;;;4.05;;
13435;SDS011;6790;49.520;8.504;2023-05-14T11:27:38;4.00;;;3.55;;
13435;SDS011;6790;49.520;8.504;2023-05-14T11:30:12;3.97;;;3.33;;
13435;SDS011;6790;49.520;8.504;2023-05-14T11:32:45;3.20;;;2.90;;
13435;SDS011;6790;49.520;8.504;2023-05-14T11:35:13;3.22;;;2.92;;
13435;SDS011;6790;49.520;8.504;2023-05-14T11:37:40;3.78;;;3.40;;
13435;SDS011;6790;49.520;8.504;2023-05-14T11:40:07;3.40;;;3.10;;
13435;SDS011;6790;49.520;8.504;2023-05-14T11:42:40;3.42;;;3.13;;
13435;SDS011;6790;49.520;8.504;2023-05-14T11:45:05;3.83;;;3.53;;
13435;SDS011;6790;49.520;8.504;2023-05-14T11:47:35;3.97;;;3.55;;
13435;SDS011;6790;49.520;8.504;2023-05-14T11:50:01;3.33;;;2.95;;
13435;SDS011;6790;49.520;8.504;2023-05-14T11:52:27;3.33;;;3.03;;
13435;SDS011;6790;49.520;8.504;2023-05-14T11:54:53;3.53;;;3.22;;
13435;SDS011;6790;49.520;8.504;2023-05-14T11:57:19;3.45;;;3.10;;
13435;SDS011;6790;49.520;8.504;2023-05-14T11:59:47;3.80;;;3.42;;
13435;SDS011;6790;49.520;8.504;2023-05-14T12:02:14;4.57;;;3.55;;
13435;SDS011;6790;49.520;8.504;2023-05-14T12:04:42;4.18;;;3.40;;
13435;SDS011;6790;49.520;8.504;2023-05-14T12:07:10;3.35;;;3.05;;
13435;SDS011;6790;49.520;8.504;2023-05-14T12:09:43;3.60;;;3.30;;
13435;SDS011;6790;49.520;8.504;2023-05-14T12:12:14;4.90;;;3.03;;
13435;SDS011;6790;49.520;8.504;2023-05-14T12:14:43;4.57;;;3.40;;
13435;SDS011;6790;49.520;8.504;2023-05-14T12:17:13;4.00;;;3.60;;
13435;SDS011;6790;49.520;8.504;2023-05-14T12:19:42;3.47;;;3.17;;
13435;SDS011;6790;49.520;8.504;2023-05-14T12:22:10;4.32;;;3.15;;
13435;SDS011;6790;49.520;8.504;2023-05-14T12:24:38;5.13;;;3.33;;
13435;SDS011;6790;49.520;8.504;2023-05-14T12:27:06;3.45;;;3.10;;
13435;SDS011;6790;49.520;8.504;2023-05-14T12:29:35;3.13;;;2.83;;
13435;SDS011;6790;49.520;8.504;2023-05-14T12:32:08;4.35;;;3.15;;
13435;SDS011;6790;49.520;8.504;2023-05-14T12:34:35;3.30;;;3.00;;
13435;SDS011;6790;49.520;8.504;2023-05-14T12:37:01;3.65;;;3.35;;
13435;SDS011;6790;49.520;8.504;2023-05-14T12:39:28;4.78;;;2.97;;
13435;SDS011;6790;49.520;8.504;2023-05-14T12:41:56;3.45;;;2.83;;
13435;SDS011;6790;49.520;8.504;2023-05-14T12:44:22;4.47;;;4.05;;
13435;SDS011;6790;49.520;8.504;2023-05-14T12:46:48;4.03;;;3.63;;
13435;SDS011;6790;49.520;8.504;2023-05-14T12:49:14;4.35;;;2.80;;
13435;SDS011;6790;49.520;8.504;2023-05-14T12:51:39;3.05;;;2.75;;
13435;SDS011;6790;49.520;8.504;2023-05-14T12:54:05;3.80;;;3.40;;
13435;SDS011;6790;49.520;8.504;2023-05-14T12:56:31;3.33;;;3.03;;
13435;SDS011;6790;49.520;8.504;2023-05-14T12:58:56;4.85;;;3.00;;
13435;SDS011;6790;49.520;8.504;2023-05-14T13:01:22;4.65;;;3.33;;
13435;SDS011;6790;49.520;8.504;2023-05-14T13:03:48;6.50;;;5.38;;
13435;SDS011;6790;49.520;8.504;2023-05-14T13:06:15;3.80;;;3.40;;
13435;SDS011;6790;49.520;8.504;2023-05-14T13:08:40;3.28;;;2.97;;
13435;SDS011;6790;49.520;8.504;2023-05-14T13:11:06;3.08;;;2.78;;
13435;SDS011;6790;49.520;8.504;2023-05-14T13:13:32;4.35;;;2.90;;
13435;SDS011;6790;49.520;8.504;2023-05-14T13:15:58;4.00;;;3.10;;
13435;SDS011;6790;49.520;8.504;2023-05-14T13:18:23;5.00;;;3.05;;
13435;SDS011;6790;49.520;8.504;2023-05-14T13:20:50;3.30;;;2.83;;
13435;SDS011;6790;49.520;8.504;2023-05-14T13:23:16;3.05;;;2.75;;
13435;SDS011;6790;49.520;8.504;2023-05-14T13:25:42;3.10;;;2.90;;
13435;SDS011;6790;49.520;8.504;2023-05-14T13:28:07;3.20;;;2.90;;
13435;SDS011;6790;49.520;8.504;2023-05-14T13:30:33;2.90;;;2.60;;
13435;SDS011;6790;49.520;8.504;2023-05-14T13:32:59;3.30;;;2.63;;
13435;SDS011;6790;49.520;8.504;2023-05-14T13:35:25;7.43;;;5.82;;
13435;SDS011;6790;49.520;8.504;2023-05-14T13:37:50;3.15;;;2.88;;
13435;SDS011;6790;49.520;8.504;2023-05-14T13:40:16;3.20;;;2.90;;
13435;SDS011;6790;49.520;8.504;2023-05-14T13:42:42;3.25;;;2.95;;
13435;SDS011;6790;49.520;8.504;2023-05-14T13:45:07;3.22;;;2.95;;
13435;SDS011;6790;49.520;8.504;2023-05-14T13:47:34;3.35;;;3.05;;
13435;SDS011;6790;49.520;8.504;2023-05-14T13:49:59;3.28;;;2.97;;
13435;SDS011;6790;49.520;8.504;2023-05-14T13:52:25;3.05;;;2.80;;
13435;SDS011;6790;49.520;8.504;2023-05-14T13:54:51;3.40;;;3.10;;
13435;SDS011;6790;49.520;8.504;2023-05-14T13:57:18;3.88;;;3.38;;
13435;SDS011;6790;49.520;8.504;2023-05-14T13:59:44;3.40;;;3.10;;
13435;SDS011;6790;49.520;8.504;2023-05-14T14:02:10;4.53;;;3.17;;
13435;SDS011;6790;49.520;8.504;2023-05-14T14:04:36;3.15;;;2.92;;
13435;SDS011;6790;49.520;8.504;2023-05-14T14:07:02;3.63;;;2.90;;
13435;SDS011;6790;49.520;8.504;2023-05-14T14:09:28;3.72;;;3.25;;
13435;SDS011;6790;49.520;8.504;2023-05-14T14:11:58;3.35;;;2.70;;
13435;SDS011;6790;49.520;8.504;2023-05-14T14:14:26;3.97;;;3.17;;
13435;SDS011;6790;49.520;8.504;2023-05-14T14:16:52;3.25;;;2.95;;
13435;SDS011;6790;49.520;8.504;2023-05-14T14:19:18;4.10;;;3.10;;
13435;SDS011;6790;49.520;8.504;2023-05-14T14:21:43;4.03;;;3.15;;
13435;SDS011;6790;49.520;8.504;2023-05-14T14:24:09;3.30;;;3.00;;
13435;SDS011;6790;49.520;8.504;2023-05-14T14:26:35;3.40;;;3.10;;
13435;SDS011;6790;49.520;8.504;2023-05-14T14:29:00;3.30;;;3.00;;
13435;SDS011;6790;49.520;8.504;2023-05-14T14:31:26;3.25;;;2.83;;
13435;SDS011;6790;49.520;8.504;2023-05-14T14:33:52;3.28;;;2.97;;
13435;SDS011;6790;49.520;8.504;2023-05-14T14:36:17;4.10;;;3.20;;
13435;SDS011;6790;49.520;8.504;2023-05-14T14:38:43;3.22;;;2.80;;
13435;SDS011;6790;49.520;8.504;2023-05-14T14:41:09;3.97;;;2.97;;
13435;SDS011;6790;49.520;8.504;2023-05-14T14:43:38;3.75;;;2.88;;
13435;SDS011;6790;49.520;8.504;2023-05-14T14:46:04;2.65;;;2.45;;
13435;SDS011;6790;49.520;8.504;2023-05-14T14:48:32;5.15;;;3.30;;
13435;SDS011;6790;49.520;8.504;2023-05-14T14:51:03;4.85;;;4.15;;
13435;SDS011;6790;49.520;8.504;2023-05-14T14:53:30;3.55;;;3.22;;
13435;SDS011;6790;49.520;8.504;2023-05-14T14:55:57;2.95;;;2.70;;
13435;SDS011;6790;49.520;8.504;2023-05-14T14:58:24;2.80;;;2.60;;
13435;SDS011;6790;49.520;8.504;2023-05-14T15:00:51;3.08;;;2.78;;
13435;SDS011;6790;49.520;8.504;2023-05-14T15:03:21;2.72;;;2.53;;
13435;SDS011;6790;49.520;8.504;2023-05-14T15:05:48;3.55;;;2.60;;
13435;SDS011;6790;49.520;8.504;2023-05-14T15:08:15;3.72;;;3.08;;
13435;SDS011;6790;49.520;8.504;2023-05-14T15:10:40;3.22;;;2.92;;
13435;SDS011;6790;49.520;8.504;2023-05-14T15:13:06;2.92;;;2.50;;
13435;SDS011;6790;49.520;8.504;2023-05-14T15:15:33;2.92;;;2.70;;
13435;SDS011;6790;49.520;8.504;2023-05-14T15:17:59;2.90;;;2.70;;